Time;durP1;ratioP1;P1;durP2;ratioP2;P2;SDS_P1;SDS_P2;PMS_P1;PMS_P2;Temp;Humidity;BMP_temperature;BMP_pressure;BME280_temperature;BME280_humidity;BME280_pressure;Samples;Min_cycle;Max_cycle;Signal;HPM_P1;HPM_P2
2024/01/13 00:04:40;;;;;;;0.00;0.00;;;;;;;-145.06;100.00;56923.19;10453946;28;20548;-72
2024/01/13 00:09:40;;;;;;;0.00;0.00;;;;;;;-145.06;100.00;57016.41;10456314;28;20025;-71
2024/01/13 00:14:40;;;;;;;0.00;0.00;;;;;;;-145.06;100.00;57010.31;10439066;28;20025;-72
2024/01/13 00:19:40;;;;;;;0.00;0.00;;;;;;;-145.06;100.00;56953.56;10455687;28;20119;-72
2024/01/13 00:24:41;;;;;;;0.00;0.00;;;;;;;-145.06;100.00;56880.63;10458028;28;20017;-72
2024/01/13 00:29:42;;;;;;;0.00;0.00;;;;;;;-145.06;100.00;56848.19;10455507;28;20078;-72
2024/01/13 00:34:43;;;;;;;0.00;0.00;;;;;;;-145.06;100.00;56836.03;10463644;28;20024;-72
2024/01/13 00:39:43;;;;;;;0.00;0.00;;;;;;;-145.06;100.00;56866.44;10455251;28;20024;-72
2024/01/13 00:44:43;;;;;;;0.00;0.00;;;;;;;-145.06;100.00;56892.78;10454585;28;20017;-72
2024/01/13 00:49:43;;;;;;;0.00;0.00;;;;;;;-145.06;100.00;56957.63;10455012;28;20091;-72
2024/01/13 00:54:44;;;;;;;0.00;0.00;;;;;;;-145.06;100.00;56931.28;10452818;28;20025;-72
2024/01/13 00:59:44;;;;;;;0.00;0.00;;;;;;;-145.06;100.00;56929.25;10454573;28;20413;-72
2024/01/13 01:04:45;;;;;;;0.00;0.00;;;;;;;-145.06;100.00;56911.03;10458170;28;20024;-72
2024/01/13 01:09:45;;;;;;;0.00;0.00;;;;;;;-145.06;100.00;56929.25;10453809;28;20071;-72
2024/01/13 01:14:45;;;;;;;0.00;0.00;;;;;;;-145.06;100.00;56888.72;10461966;28;20074;-72
2024/01/13 01:19:46;;;;;;;0.00;0.00;;;;;;;-145.06;100.00;56939.38;10457229;28;20032;-72
2024/01/13 01:24:46;;;;;;;0.00;0.00;;;;;;;-145.06;100.00;57020.47;10457554;28;20023;-72
2024/01/13 01:29:46;;;;;;;0.00;0.00;;;;;;;-145.06;100.00;57032.63;10468516;28;20028;-72
2024/01/13 01:34:47;;;;;;;0.00;0.00;;;;;;;-145.06;100.00;57014.38;10466947;28;20029;-72
2024/01/13 01:39:47;;;;;;;0.00;0.00;;;;;;;-145.06;100.00;57077.22;10456332;28;20017;-72
2024/01/13 01:44:47;;;;;;;0.00;0.00;;;;;;;-145.06;100.00;57180.56;10459814;28;20013;-72
2024/01/13 01:49:49;;;;;;;0.00;0.00;;;;;;;-145.06;100.00;57198.81;10467514;28;20025;-72
2024/01/13 01:54:50;;;;;;;0.00;0.00;;;;;;;-145.06;100.00;57202.88;10460661;28;20470;-72
2024/01/13 01:59:50;;;;;;;0.00;0.00;;;;;;;-145.06;100.00;57221.13;10461225;28;20021;-72
2024/01/13 02:04:51;;;;;;;0.00;0.00;;;;;;;-145.06;100.00;57176.53;10464866;28;20017;-72
2024/01/13 02:09:51;;;;;;;0.00;0.00;;;;;;;-145.06;100.00;57148.16;10458390;28;20088;-71
2024/01/13 02:14:54;;;;;;;0.00;0.00;;;;;;;-145.06;100.00;57069.09;10452446;28;20013;-72
2024/01/13 02:19:54;;;;;;;0.00;0.00;;;;;;;-145.06;100.00;57138.00;10464122;28;20032;-72
2024/01/13 02:24:54;;;;;;;0.00;0.00;;;;;;;-145.06;100.00;57198.81;10462207;28;20016;-72
2024/01/13 02:29:55;;;;;;;0.00;0.00;;;;;;;-145.06;100.00;57261.66;10460570;28;20271;-71
2024/01/13 02:34:55;;;;;;;0.00;0.00;;;;;;;-145.06;100.00;57352.88;10462565;28;20056;-71
2024/01/13 02:39:55;;;;;;;0.00;0.00;;;;;;;-145.06;100.00;57389.34;10463887;28;20306;-71
2024/01/13 02:44:56;;;;;;;0.00;0.00;;;;;;;-145.06;100.00;57454.22;10472778;28;20036;-71
2024/01/13 02:49:56;;;;;;;0.00;0.00;;;;;;;-145.06;100.00;57466.38;10455340;28;20021;-71
2024/01/13 02:54:56;;;;;;;0.00;0.00;;;;;;;-145.06;100.00;57504.88;10453153;28;20036;-71
2024/01/13 02:59:56;;;;;;;0.00;0.00;;;;;;;-145.06;100.00;57553.53;10441300;28;20021;-71
2024/01/13 03:04:57;;;;;;;0.00;0.00;;;;;;;-145.06;100.00;57588.00;10457783;28;20078;-72
2024/01/13 03:09:57;;;;;;;0.00;0.00;;;;;;;-145.06;100.00;57596.09;10455099;28;20032;-72
2024/01/13 03:14:57;;;;;;;0.00;0.00;;;;;;;-145.06;100.00;57699.47;10449029;28;20028;-72
2024/01/13 03:19:57;;;;;;;0.00;0.00;;;;;;;-145.06;100.00;57721.78;10449327;28;20020;-72
2024/01/13 03:24:58;;;;;;;0.00;0.00;;;;;;;-145.06;100.00;57778.53;10449214;28;20017;-72
2024/01/13 03:29:58;;;;;;;0.00;0.00;;;;;;;-145.06;100.00;57738.00;10454518;28;20036;-72
2024/01/13 03:34:58;;;;;;;0.00;0.00;;;;;;;-145.06;100.00;57719.75;10437053;28;20053;-72
2024/01/13 03:39:59;;;;;;;0.00;0.00;;;;;;;-145.06;100.00;57766.38;10435466;28;20394;-72
2024/01/13 03:44:59;;;;;;;0.00;0.00;;;;;;;-145.06;100.00;57806.91;10462713;28;20386;-72
2024/01/13 03:49:59;;;;;;;0.00;0.00;;;;;;;-145.06;100.00;57705.56;10462207;28;20275;-72
2024/01/13 03:55:00;;;;;;;0.00;0.00;;;;;;;-145.06;100.00;57723.81;10464636;28;20287;-72
2024/01/13 04:00:00;;;;;;;0.00;0.00;;;;;;;-145.06;100.00;57663.00;10462431;28;20041;-72
2024/01/13 04:05:00;;;;;;;0.00;0.00;;;;;;;-145.06;100.00;57630.56;10468823;28;20017;-72
2024/01/13 04:10:01;;;;;;;0.00;0.00;;;;;;;-145.06;100.00;57588.00;10461330;28;20025;-72
2024/01/13 04:15:01;;;;;;;0.00;0.00;;;;;;;-145.06;100.00;57500.84;10445433;28;20217;-72
2024/01/13 04:20:01;;;;;;;0.00;0.00;;;;;;;-145.06;100.00;57496.78;10457954;28;20032;-73
2024/01/13 04:25:01;;;;;;;0.00;0.00;;;;;;;-145.06;100.00;57502.84;10460510;28;20024;-73
2024/01/13 04:30:02;;;;;;;0.00;0.00;;;;;;;-145.06;100.00;57588.00;10463792;28;20653;-73
2024/01/13 04:35:02;;;;;;;0.00;0.00;;;;;;;-145.06;100.00;57579.88;10471427;28;20120;-73
2024/01/13 04:40:03;;;;;;;0.00;0.00;;;;;;;-145.06;100.00;57571.78;10460630;28;20029;-73
2024/01/13 04:45:04;;;;;;;0.00;0.00;;;;;;;-145.06;100.00;57632.59;10448081;28;20019;-73
2024/01/13 04:50:05;;;;;;;0.00;0.00;;;;;;;-145.06;100.00;57620.44;10466284;28;20338;-73
2024/01/13 04:55:06;;;;;;;0.00;0.00;;;;;;;-145.06;100.00;57602.19;10454396;28;20025;-73
2024/01/13 05:00:07;;;;;;;0.00;0.00;;;;;;;-145.06;100.00;57606.25;10464477;28;20085;-73
2024/01/13 05:05:07;;;;;;;0.00;0.00;;;;;;;-145.06;100.00;57596.09;10469299;28;20035;-73
2024/01/13 05:10:08;;;;;;;0.00;0.00;;;;;;;-145.06;100.00;57660.97;10452061;28;20021;-74
2024/01/13 05:15:08;;;;;;;0.00;0.00;;;;;;;-145.06;100.00;57620.44;10447813;28;20024;-73
2024/01/13 05:20:09;;;;;;;0.00;0.00;;;;;;;-145.06;100.00;57689.34;10470020;28;20025;-73
2024/01/13 05:25:09;;;;;;;0.00;0.00;;;;;;;-145.06;100.00;57701.50;10469346;28;20111;-73
2024/01/13 05:30:10;;;;;;;0.00;0.00;;;;;;;-145.06;100.00;57626.50;10446350;28;20021;-74
2024/01/13 05:35:11;;;;;;;0.00;0.00;;;;;;;-145.06;100.00;57636.66;10450793;28;20451;-74
2024/01/13 05:40:11;;;;;;;0.00;0.00;;;;;;;-145.06;100.00;57600.16;10453186;28;20025;-74
2024/01/13 05:45:11;;;;;;;0.00;0.00;;;;;;;-145.06;100.00;57636.66;10459112;28;20259;-73
2024/01/13 05:50:12;;;;;;;0.00;0.00;;;;;;;-145.06;100.00;57624.47;10457927;28;20263;-74
2024/01/13 05:55:12;;;;;;;0.00;0.00;;;;;;;-145.06;100.00;57577.84;10453170;28;20304;-74
2024/01/13 06:00:12;;;;;;;0.00;0.00;;;;;;;-145.06;100.00;57594.06;10445004;28;20049;-73
2024/01/13 06:05:13;;;;;;;0.00;0.00;;;;;;;-145.06;100.00;57535.28;10456811;28;20066;-74
2024/01/13 06:10:14;;;;;;;0.00;0.00;;;;;;;-145.06;100.00;57543.41;10468519;28;20027;-74
2024/01/13 06:15:15;;;;;;;0.00;0.00;;;;;;;-145.06;100.00;57454.22;10450273;28;20032;-74
2024/01/13 06:20:15;;;;;;;0.00;0.00;;;;;;;-145.06;100.00;57433.94;10457075;28;20024;-73
2024/01/13 06:25:17;;;;;;;0.00;0.00;;;;;;;-145.06;100.00;57363.00;10438645;28;20032;-74
2024/01/13 06:30:17;;;;;;;0.00;0.00;;;;;;;-145.06;100.00;57405.56;10457034;28;20264;-74
2024/01/13 06:35:17;;;;;;;0.00;0.00;;;;;;;-145.06;100.00;57417.72;10456270;28;20029;-74
2024/01/13 06:40:18;;;;;;;0.00;0.00;;;;;;;-145.06;100.00;57401.50;10458930;28;20028;-74
2024/01/13 06:45:18;;;;;;;0.00;0.00;;;;;;;-145.06;100.00;57421.78;10455476;28;20799;-74
2024/01/13 06:50:18;;;;;;;0.00;0.00;;;;;;;-145.06;100.00;57417.72;10455817;28;20017;-74
2024/01/13 06:55:23;;;;;;;0.00;0.00;;;;;;;-145.06;100.00;57460.28;10456147;28;20013;-74
2024/01/13 07:00:23;;;;;;;0.00;0.00;;;;;;;-145.06;100.00;57417.72;10450314;28;20086;-74
2024/01/13 07:05:23;;;;;;;0.00;0.00;;;;;;;-145.06;100.00;57547.44;10457921;28;20362;-74
2024/01/13 07:10:23;;;;;;;0.00;0.00;;;;;;;-145.06;100.00;57577.84;10452972;28;20271;-74
2024/01/13 07:15:24;;;;;;;0.00;0.00;;;;;;;-145.06;100.00;57537.31;10458912;28;20029;-74
2024/01/13 07:20:24;;;;;;;0.00;0.00;;;;;;;-145.06;100.00;57521.09;10452651;28;20016;-74
2024/01/13 07:25:25;;;;;;;0.00;0.00;;;;;;;-145.06;100.00;57523.13;10449354;28;20052;-74
2024/01/13 07:30:25;;;;;;;0.00;0.00;;;;;;;-145.06;100.00;57506.91;10435035;28;20028;-74
2024/01/13 07:35:26;;;;;;;0.00;0.00;;;;;;;-145.06;100.00;57474.47;10456114;28;20502;-74
2024/01/13 07:40:27;;;;;;;0.00;0.00;;;;;;;-145.06;100.00;57417.72;10449359;28;20044;-74
2024/01/13 07:45:27;;;;;;;0.00;0.00;;;;;;;-145.06;100.00;57427.84;10452398;28;20120;-74
2024/01/13 07:50:27;;;;;;;0.00;0.00;;;;;;;-145.06;100.00;57387.31;10451942;28;20020;-74
2024/01/13 07:55:27;;;;;;;0.00;0.00;;;;;;;-145.06;100.00;57356.91;10459316;28;20486;-74
2024/01/13 08:00:28;;;;;;;0.00;0.00;;;;;;;-145.06;100.00;57336.66;10456853;28;20103;-74
2024/01/13 08:05:28;;;;;;;0.00;0.00;;;;;;;-145.06;100.00;57389.34;10451978;28;20486;-73
2024/01/13 08:10:28;;;;;;;0.00;0.00;;;;;;;-145.06;100.00;57373.13;10433455;28;20116;-74
2024/01/13 08:15:29;;;;;;;0.00;0.00;;;;;;;-145.06;100.00;57348.81;10454481;28;20318;-74
2024/01/13 08:20:29;;;;;;;0.00;0.00;;;;;;;-145.06;100.00;57281.91;10449766;28;20259;-74
2024/01/13 08:25:29;;;;;;;0.00;0.00;;;;;;;-145.06;100.00;57243.41;10455785;28;20032;-74
2024/01/13 08:30:29;;;;;;;0.00;0.00;;;;;;;-145.06;100.00;57267.72;10461458;28;20489;-74
2024/01/13 08:35:30;;;;;;;0.00;0.00;;;;;;;-145.06;100.00;57328.53;10466454;28;20425;-74
2024/01/13 08:40:30;;;;;;;0.00;0.00;;;;;;;-145.06;100.00;57358.94;10460729;28;20498;-74
2024/01/13 08:45:31;;;;;;;0.00;0.00;;;;;;;-145.06;100.00;57371.09;10455577;28;20038;-74
2024/01/13 08:50:34;;;;;;;0.00;0.00;;;;;;;-145.06;100.00;57360.97;10459449;28;20029;-74
2024/01/13 08:55:34;;;;;;;0.00;0.00;;;;;;;-145.06;100.00;57308.28;10460101;28;20155;-74
2024/01/13 09:00:35;;;;;;;0.00;0.00;;;;;;;-145.06;100.00;57186.66;10457835;28;20363;-73
2024/01/13 09:05:35;;;;;;;0.00;0.00;;;;;;;-145.06;100.00;57091.41;10458459;28;20093;-75
2024/01/13 09:10:35;;;;;;;0.00;0.00;;;;;;;-145.06;100.00;57022.50;10457637;28;20274;-73
2024/01/13 09:15:36;;;;;;;0.00;0.00;;;;;;;-145.06;100.00;56996.13;10440216;28;20033;-73
2024/01/13 09:20:36;;;;;;;0.00;0.00;;;;;;;-145.06;100.00;56953.56;10436379;28;20017;-73
2024/01/13 09:25:37;;;;;;;0.00;0.00;;;;;;;-145.06;100.00;56979.94;10436085;28;20029;-73
2024/01/13 09:30:37;;;;;;;0.00;0.00;;;;;;;-145.06;100.00;56935.34;10456918;28;20033;-74
2024/01/13 09:35:37;;;;;;;0.00;0.00;;;;;;;-145.06;100.00;56906.97;10456089;28;20081;-73
2024/01/13 09:40:41;;;;;;;0.00;0.00;;;;;;;-145.06;100.00;56890.75;10455685;28;20111;-74
2024/01/13 09:45:46;;;;;;;0.00;0.00;;;;;;;-145.06;100.00;56880.63;10458522;28;20025;-74
2024/01/13 09:50:53;;;;;;;0.00;0.00;;;;;;;-145.06;100.00;56846.16;10453891;28;20530;-73
2024/01/13 09:55:59;;;;;;;0.00;0.00;;;;;;;-145.06;100.00;56917.09;10458756;28;20071;-74
2024/01/13 10:01:01;;;;;;;0.00;0.00;;;;;;;-145.06;100.00;56959.66;10455130;28;20024;-74
2024/01/13 10:06:02;;;;;;;0.00;0.00;;;;;;;-145.06;100.00;56992.09;10459935;28;20055;-73
2024/01/13 10:11:03;;;;;;;0.00;0.00;;;;;;;-145.06;100.00;57079.25;10435432;28;20029;-73
2024/01/13 10:16:04;;;;;;;0.00;0.00;;;;;;;-145.06;100.00;57075.19;10435176;28;20082;-73
2024/01/13 10:21:05;;;;;;;0.00;0.00;;;;;;;-145.06;100.00;57109.63;10452773;28;20548;-73
2024/01/13 10:26:07;;;;;;;0.00;0.00;;;;;;;-145.06;100.00;57089.38;10451602;28;20025;-73
2024/01/13 10:31:07;;;;;;;0.00;0.00;;;;;;;-145.06;100.00;57107.63;10451344;28;20067;-73
2024/01/13 10:36:10;;;;;;;0.00;0.00;;;;;;;-145.06;100.00;57162.34;10454147;28;20075;-74
2024/01/13 10:41:10;;;;;;;0.00;0.00;;;;;;;-145.06;100.00;57071.13;10450782;28;20033;-74
2024/01/13 10:46:12;;;;;;;0.00;0.00;;;;;;;-145.06;100.00;56983.97;10450160;28;20033;-73
2024/01/13 10:51:28;;;;;;;0.00;0.00;;;;;;;-145.06;100.00;56858.31;10450784;28;20547;-74
2024/01/13 10:56:30;;;;;;;0.00;0.00;;;;;;;-145.06;100.00;56797.53;10447256;28;20177;-74
2024/01/13 11:01:31;;;;;;;0.00;0.00;;;;;;;-145.06;100.00;56663.78;10450593;28;20113;-74
2024/01/13 11:06:32;;;;;;;0.00;0.00;;;;;;;-145.06;100.00;56627.28;10453350;28;20363;-74
2024/01/13 11:11:38;;;;;;;0.00;0.00;;;;;;;-145.06;100.00;56673.91;10450142;28;20021;-74
2024/01/13 11:16:44;;;;;;;0.00;0.00;;;;;;;-145.06;100.00;56700.25;10449728;28;20745;-74
2024/01/13 11:21:48;;;;;;;0.00;0.00;;;;;;;-145.06;100.00;56627.28;10449945;28;20032;-74
2024/01/13 11:26:49;;;;;;;0.00;0.00;;;;;;;-145.06;100.00;56594.88;10431660;28;20112;-74
2024/01/13 11:31:58;;;;;;;0.00;0.00;;;;;;;-145.06;100.00;56578.66;10449654;28;20040;-74
2024/01/13 11:37:02;;;;;;;0.00;0.00;;;;;;;-145.06;100.00;56578.66;10449247;28;20437;-74
2024/01/13 11:42:05;;;;;;;0.00;0.00;;;;;;;-145.06;100.00;56761.03;10449313;28;20017;-74
2024/01/13 11:47:11;;;;;;;0.00;0.00;;;;;;;-145.06;100.00;56785.38;10431117;28;20175;-74
2024/01/13 11:52:13;;;;;;;0.00;0.00;;;;;;;-145.06;100.00;56667.81;10448822;28;20127;-74
2024/01/13 11:57:17;;;;;;;0.00;0.00;;;;;;;-145.06;100.00;56684.03;10449348;28;20021;-74
2024/01/13 12:02:20;;;;;;;0.00;0.00;;;;;;;-145.06;100.00;56734.69;10451849;28;20071;-74
2024/01/13 12:07:21;;;;;;;0.00;0.00;;;;;;;-145.06;100.00;56712.41;10456195;28;20540;-74
2024/01/13 12:12:22;;;;;;;0.00;0.00;;;;;;;-145.06;100.00;56637.41;10456638;28;20024;-74
2024/01/13 12:17:22;;;;;;;0.00;0.00;;;;;;;-145.06;100.00;56655.66;10455339;28;20025;-74
2024/01/13 12:22:23;;;;;;;0.00;0.00;;;;;;;-145.06;100.00;56609.06;10457087;28;20028;-74
2024/01/13 12:27:24;;;;;;;0.00;0.00;;;;;;;-145.06;100.00;56619.19;10456171;28;20025;-73
2024/01/13 12:32:29;;;;;;;0.00;0.00;;;;;;;-145.06;100.00;56671.88;10456109;28;20379;-73
2024/01/13 12:37:30;;;;;;;0.00;0.00;;;;;;;-145.06;100.00;56617.16;10464609;28;20033;-73
2024/01/13 12:42:30;;;;;;;0.00;0.00;;;;;;;-145.06;100.00;56554.34;10437852;28;20464;-74
2024/01/13 12:47:30;;;;;;;0.00;0.00;;;;;;;-145.06;100.00;56554.34;10456357;28;20387;-74
2024/01/13 12:52:31;;;;;;;0.00;0.00;;;;;;;-145.06;100.00;56485.44;10439285;28;20020;-75
2024/01/13 12:57:31;;;;;;;0.00;0.00;;;;;;;-145.06;100.00;56465.16;10454915;28;20382;-74
2024/01/13 13:02:33;;;;;;;0.00;0.00;;;;;;;-145.06;100.00;56396.28;10455445;28;20020;-74
2024/01/13 13:07:34;;;;;;;0.00;0.00;;;;;;;-145.06;100.00;56436.81;10455191;28;20397;-73
2024/01/13 13:12:34;;;;;;;0.00;0.00;;;;;;;-145.06;100.00;56523.94;10451417;28;20025;-73
2024/01/13 13:17:34;;;;;;;0.00;0.00;;;;;;;-145.06;100.00;56540.16;10454047;28;20505;-73
2024/01/13 13:22:37;;;;;;;0.00;0.00;;;;;;;-145.06;100.00;56594.88;10454617;28;20573;-73
2024/01/13 13:27:37;;;;;;;0.00;0.00;;;;;;;-145.06;100.00;56578.66;10459338;28;20066;-73
2024/01/13 13:32:37;;;;;;;0.00;0.00;;;;;;;-145.06;100.00;56611.06;10455076;28;20104;-73
2024/01/13 13:37:38;;;;;;;0.00;0.00;;;;;;;-145.06;100.00;56643.50;10463706;28;20033;-72
2024/01/13 13:42:38;;;;;;;0.00;0.00;;;;;;;-145.06;100.00;56602.97;10459774;28;20013;-73
2024/01/13 13:47:38;;;;;;;0.00;0.00;;;;;;;-145.06;100.00;56669.84;10454094;28;20436;-73
2024/01/13 13:52:39;;;;;;;0.00;0.00;;;;;;;-145.06;100.00;56746.84;10453376;28;20052;-73
2024/01/13 13:57:39;;;;;;;0.00;0.00;;;;;;;-145.06;100.00;56750.91;10434663;28;20056;-73
2024/01/13 14:02:39;;;;;;;0.00;0.00;;;;;;;-145.06;100.00;56906.97;10452892;28;20752;-73
2024/01/13 14:07:40;;;;;;;0.00;0.00;;;;;;;-145.06;100.00;56996.13;10452609;28;20382;-73
2024/01/13 14:12:40;;;;;;;0.00;0.00;;;;;;;-145.06;100.00;57000.19;10452500;28;20021;-73
2024/01/13 14:17:41;;;;;;;0.00;0.00;;;;;;;-145.06;100.00;57040.72;10451938;28;20031;-73
2024/01/13 14:22:41;;;;;;;0.00;0.00;;;;;;;-145.06;100.00;57061.00;10450725;28;20478;-73
2024/01/13 14:27:42;;;;;;;0.00;0.00;;;;;;;-145.06;100.00;56979.94;10452331;28;20382;-73
2024/01/13 14:32:43;;;;;;;0.00;0.00;;;;;;;-145.06;100.00;56848.19;10452211;28;20021;-72
2024/01/13 14:37:44;;;;;;;0.00;0.00;;;;;;;-145.06;100.00;56469.22;10454269;28;20482;-73
2024/01/13 14:42:45;;;;;;;0.00;0.00;;;;;;;-145.06;100.00;56303.06;10451372;28;20017;-73
2024/01/13 14:47:45;;;;;;;0.00;0.00;;;;;;;-145.06;100.00;56197.69;10450783;28;20025;-73
2024/01/13 14:52:45;;;;;;;0.00;0.00;;;;;;;-145.06;100.00;56136.91;10450991;28;20406;-73
2024/01/13 14:57:46;;;;;;;0.00;0.00;;;;;;;-145.06;100.00;56072.06;10449968;28;20025;-73
2024/01/13 15:02:46;;;;;;;0.00;0.00;;;;;;;-145.06;100.00;55964.66;10450524;28;20013;-73
2024/01/13 15:07:51;;;;;;;0.00;0.00;;;;;;;-145.06;100.00;55832.97;10450608;28;20671;-73
2024/01/13 15:12:51;;;;;;;;;;;;;;;-145.06;100.00;55784.34;10453546;28;20021;-73
2024/01/13 15:17:52;;;;;;;0.00;0.00;;;;;;;-145.06;100.00;55788.38;10435215;28;20007;-73
2024/01/13 15:22:53;;;;;;;0.00;0.00;;;;;;;-145.06;100.00;55776.22;10455053;28;20313;-73
2024/01/13 15:27:54;;;;;;;0.00;0.00;;;;;;;-145.06;100.00;55796.50;10456639;28;20016;-73
2024/01/13 15:32:54;;;;;;;0.00;0.00;;;;;;;-145.06;100.00;55824.84;10450542;28;20283;-73
2024/01/13 15:37:54;;;;;;;0.00;0.00;;;;;;;-145.06;100.00;55794.47;10448326;28;20023;-73
2024/01/13 15:42:55;;;;;;;0.00;0.00;;;;;;;-145.06;100.00;55747.88;10449393;28;20263;-73
2024/01/13 15:47:55;;;;;;;0.00;0.00;;;;;;;-145.06;100.00;55747.88;10454121;28;20025;-73
2024/01/13 15:52:55;;;;;;;0.00;0.00;;;;;;;-145.06;100.00;55729.63;10449278;28;20032;-73
2024/01/13 15:57:56;;;;;;;0.00;0.00;;;;;;;-145.06;100.00;55737.72;10449683;28;20028;-73
2024/01/13 16:02:56;;;;;;;0.00;0.00;;;;;;;-145.06;100.00;55597.94;10458126;28;20031;-73
2024/01/13 16:07:56;;;;;;;0.00;0.00;;;;;;;-145.06;100.00;55638.44;10454442;28;20013;-73
2024/01/13 16:12:57;;;;;;;0.00;0.00;;;;;;;-145.06;100.00;55614.16;10448695;28;20025;-73
2024/01/13 16:17:57;;;;;;;0.00;0.00;;;;;;;-145.06;100.00;55612.13;10449425;28;20481;-73
2024/01/13 16:22:57;;;;;;;0.00;0.00;;;;;;;-145.06;100.00;55498.66;10449042;28;20454;-73
2024/01/13 16:27:59;;;;;;;0.10;0.10;;;;;;;-145.06;100.00;55516.91;10453579;28;20040;-73
2024/01/13 16:32:59;;;;;;;0.00;0.00;;;;;;;-145.06;100.00;55445.97;10452635;28;20393;-72
2024/01/13 16:38:00;;;;;;;0.00;0.00;;;;;;;-145.06;100.00;55427.75;10455216;28;20013;-73
2024/01/13 16:43:00;;;;;;;0.00;0.00;;;;;;;-145.06;100.00;55423.69;10449381;28;20009;-73
2024/01/13 16:48:00;;;;;;;0.00;0.00;;;;;;;-145.06;100.00;55486.50;10451604;28;20100;-73
2024/01/13 16:53:00;;;;;;;0.00;0.00;;;;;;;-145.06;100.00;55512.84;10465637;28;20032;-73
2024/01/13 16:58:01;;;;;;;0.00;0.00;;;;;;;-145.06;100.00;55494.59;10457515;28;20083;-73
2024/01/13 17:03:01;;;;;;;0.00;0.00;;;;;;;-145.06;100.00;55452.06;10460219;28;20425;-73
2024/01/13 17:08:01;;;;;;;0.00;0.00;;;;;;;-145.06;100.00;55452.06;10456740;28;20048;-73
2024/01/13 17:13:02;;;;;;;0.00;0.00;;;;;;;-145.06;100.00;55464.22;10455253;28;20021;-73
2024/01/13 17:18:02;;;;;;;0.00;0.00;;;;;;;-145.06;100.00;55441.94;10447284;28;20032;-73
2024/01/13 17:23:03;;;;;;;0.00;0.00;;;;;;;-145.06;100.00;55385.22;10440348;28;20024;-73
2024/01/13 17:28:03;;;;;;;0.00;0.00;;;;;;;-145.06;100.00;55371.03;10460474;28;20097;-73
2024/01/13 17:33:04;;;;;;;0.00;0.00;;;;;;;-145.06;100.00;55342.66;10465865;28;20063;-74
2024/01/13 17:38:04;;;;;;;0.00;0.00;;;;;;;-145.06;100.00;55356.84;10454927;28;20033;-73
2024/01/13 17:43:04;;;;;;;0.00;0.00;;;;;;;-145.06;100.00;55379.13;10454981;28;20025;-73
2024/01/13 17:48:05;;;;;;;0.00;0.00;;;;;;;-145.06;100.00;55393.31;10456906;28;20467;-73
2024/01/13 17:53:06;;;;;;;0.00;0.00;;;;;;;-145.06;100.00;55383.19;10460683;28;20345;-74
2024/01/13 17:58:08;;;;;;;0.00;0.00;;;;;;;-145.06;100.00;55371.03;10452534;28;20029;-73
2024/01/13 18:03:09;;;;;;;0.00;0.00;;;;;;;-145.06;100.00;55389.25;10452941;28;20112;-74
2024/01/13 18:08:10;;;;;;;0.00;0.00;;;;;;;-145.06;100.00;55399.38;10459052;28;20470;-74
2024/01/13 18:13:10;;;;;;;0.00;0.00;;;;;;;-145.06;100.00;55411.53;10459007;28;20017;-74
2024/01/13 18:18:11;;;;;;;0.00;0.00;;;;;;;-145.06;100.00;55425.72;10443021;28;20025;-73
2024/01/13 18:23:11;;;;;;;0.00;0.00;;;;;;;-145.06;100.00;55411.53;10456884;28;20391;-73
2024/01/13 18:28:11;;;;;;;0.00;0.00;;;;;;;-145.06;100.00;55395.34;10461475;28;20060;-73
2024/01/13 18:33:12;;;;;;;0.00;0.00;;;;;;;-145.06;100.00;55379.13;10456370;28;20021;-74
2024/01/13 18:38:12;;;;;;;0.00;0.00;;;;;;;-145.06;100.00;55366.97;10454417;28;20028;-73
2024/01/13 18:43:12;;;;;;;0.00;0.00;;;;;;;-145.06;100.00;55328.47;10454726;28;20025;-73
2024/01/13 18:48:12;;;;;;;0.00;0.00;;;;;;;-145.06;100.00;55346.72;10457645;28;20017;-73
2024/01/13 18:53:13;;;;;;;0.00;0.00;;;;;;;-145.06;100.00;55312.28;10451170;28;20280;-73
2024/01/13 18:58:13;;;;;;;0.00;0.00;;;;;;;-145.06;100.00;55267.72;10452600;28;20090;-73
2024/01/13 19:03:13;;;;;;;0.00;0.00;;;;;;;-145.06;100.00;55261.63;10442575;28;20275;-73
2024/01/13 19:08:16;;;;;;;0.10;0.10;;;;;;;-145.06;100.00;55249.47;10456875;28;20098;-73
2024/01/13 19:13:16;;;;;;;0.00;0.00;;;;;;;-145.06;100.00;55257.56;10452037;28;20037;-73
2024/01/13 19:18:17;;;;;;;0.00;0.00;;;;;;;-145.06;100.00;55223.13;10457390;28;20401;-72
2024/01/13 19:23:17;;;;;;;0.00;0.00;;;;;;;-145.06;100.00;55229.22;10449610;28;20278;-72
2024/01/13 19:28:17;;;;;;;0.00;0.00;;;;;;;-145.06;100.00;55285.94;10452318;28;20028;-72
2024/01/13 19:33:18;;;;;;;0.00;0.00;;;;;;;-145.06;100.00;55358.88;10450441;28;20288;-71
2024/01/13 19:38:18;;;;;;;0.00;0.00;;;;;;;-145.06;100.00;55450.03;10435141;28;20048;-71
2024/01/13 19:43:18;;;;;;;0.00;0.00;;;;;;;-145.06;100.00;55504.75;10458911;28;20056;-71
2024/01/13 19:48:23;;;;;;;0.00;0.00;;;;;;;-145.06;100.00;55610.09;10455415;28;20024;-71
2024/01/13 19:53:23;;;;;;;0.00;0.00;;;;;;;-145.06;100.00;55743.81;10455991;28;20029;-71
2024/01/13 19:58:23;;;;;;;0.00;0.00;;;;;;;-145.06;100.00;55577.69;10449258;28;20021;-71
2024/01/13 20:03:24;;;;;;;0.00;0.00;;;;;;;-145.06;100.00;55547.28;10439974;28;20039;-71
2024/01/13 20:08:26;;;;;;;0.00;0.00;;;;;;;-145.06;100.00;55597.94;10434105;28;20029;-71
2024/01/13 20:13:26;;;;;;;0.00;0.00;;;;;;;-145.06;100.00;55735.72;10431311;28;20037;-72
2024/01/13 20:18:26;;;;;;;0.00;0.00;;;;;;;-145.06;100.00;55944.41;10451388;28;20021;-72
2024/01/13 20:23:27;;;;;;;0.00;0.00;;;;;;;-145.06;100.00;56059.91;10456261;28;20398;-72
2024/01/13 20:28:27;;;;;;;0.00;0.00;;;;;;;-145.06;100.00;56118.66;10459847;28;20270;-72
2024/01/13 20:33:27;;;;;;;0.00;0.00;;;;;;;-145.06;100.00;56112.59;10459668;28;20632;-72
2024/01/13 20:38:29;;;;;;;0.00;0.00;;;;;;;-145.06;100.00;55991.00;10439755;28;20437;-72
2024/01/13 20:43:29;;;;;;;0.00;0.00;;;;;;;-145.06;100.00;55909.97;10456943;28;20513;-72
2024/01/13 20:48:30;;;;;;;0.00;0.00;;;;;;;-145.06;100.00;55893.75;10456103;28;20024;-72
2024/01/13 20:53:30;;;;;;;0.00;0.00;;;;;;;-145.06;100.00;55857.28;10439995;28;20025;-72
2024/01/13 20:58:31;;;;;;;0.00;0.00;;;;;;;-145.06;100.00;55753.94;10455253;28;20024;-72
2024/01/13 21:03:31;;;;;;;0.00;0.00;;;;;;;-145.06;100.00;55721.53;10455618;28;20025;-72
2024/01/13 21:08:32;;;;;;;0.00;0.00;;;;;;;-145.06;100.00;55650.63;10455429;28;20048;-73
2024/01/13 21:13:32;;;;;;;0.00;0.00;;;;;;;-145.06;100.00;55644.53;10452215;28;20028;-74
2024/01/13 21:18:32;;;;;;;0.05;0.05;;;;;;;-145.06;100.00;55640.47;10457489;28;20020;-73
2024/01/13 21:23:34;;;;;;;0.00;0.00;;;;;;;-145.06;100.00;55614.16;10455542;28;20059;-73
2024/01/13 21:28:34;;;;;;;0.00;0.00;;;;;;;-145.06;100.00;55602.00;10454811;28;20099;-73
2024/01/13 21:33:35;;;;;;;0.00;0.00;;;;;;;-145.06;100.00;55520.94;10457194;28;20020;-73
2024/01/13 21:38:35;;;;;;;0.00;0.00;;;;;;;-145.06;100.00;55506.75;10455649;28;20626;-73
2024/01/13 21:43:35;;;;;;;0.00;0.00;;;;;;;-145.06;100.00;55486.50;10454753;28;20569;-74
2024/01/13 21:48:36;;;;;;;0.00;0.00;;;;;;;-145.06;100.00;55431.81;10455262;28;20134;-74
2024/01/13 21:53:36;;;;;;;0.00;0.00;;;;;;;-145.06;100.00;55375.06;10455018;28;20786;-74
2024/01/13 21:58:36;;;;;;;0.00;0.00;;;;;;;-145.06;100.00;55326.47;10454807;28;20036;-73
2024/01/13 22:03:36;;;;;;;0.00;0.00;;;;;;;-145.06;100.00;55263.66;10459224;28;20401;-74
2024/01/13 22:08:37;;;;;;;0.00;0.00;;;;;;;-145.06;100.00;55188.69;10458837;28;20567;-73
2024/01/13 22:13:37;;;;;;;0.00;0.00;;;;;;;-145.06;100.00;55180.59;10435520;28;20449;-73
2024/01/13 22:18:38;;;;;;;0.00;0.00;;;;;;;-145.06;100.00;55184.66;10453975;28;20587;-73
2024/01/13 22:23:39;;;;;;;0.00;0.00;;;;;;;-145.06;100.00;55221.13;10453397;28;20040;-73
2024/01/13 22:28:39;;;;;;;0.00;0.00;;;;;;;-145.06;100.00;55231.25;10454554;28;20013;-73
2024/01/13 22:33:40;;;;;;;0.00;0.00;;;;;;;-145.06;100.00;55247.44;10458778;28;20029;-73